Camden, MI (49232)

4:02 PM EST on December 21, 2014 (GMT -0500)
KMIWALDR2 | Change Station
CLOSE
Current Station
Personal Weather Station
Location: Waldron, MI
Elevation: 900 ft
Nearby Weather Stations

Elev 900 ft 41.70 °N, 84.46 °W | Updated 1 minute ago

Overcast
Overcast
33.2 °F
Feels Like 29 °F
N
4.0
Wind Variable Wind from SSE
Gusts 6.0 mph

Today
High -- | Low -- °F
--% Chance of Precip.
Yesterday
High -- | Low -- °F
Precip. -- in
8:02 AM 5:11 PM
Waning Crescent, 0% visible
Pressure 30.18 in
Visibility 7.0 miles
Clouds Scattered Clouds 1600 ft
Overcast 5000 ft
Windchill 29 °F
Dew Point 29 °F
Humidity 83%
Rainfall 0.00 in
Snow Depth Not available.
UV 0 out of 12
Pollen .10 out of 12
Air Quality Not available.
Flu Activity Not available.
METAR KJYM 212035Z AUTO 17007KT 7SM SCT016 OVC050 01/M03 A3018 RMK AO2 T00061027

More Conditions Fewer Conditions

Pressure 30.18 in
Visibility 7.0 miles
Clouds Scattered Clouds 1600 ft
Overcast 5000 ft
Windchill 29 °F
Dew Point 29 °F
Humidity 83%
Rainfall 0.00 in
Snow Depth Not available.
UV 0 out of 12
Pollen .10 out of 12
Air Quality Not available.
Flu Activity Not available.
METAR KJYM 212035Z AUTO 17007KT 7SM SCT016 OVC050 01/M03 A3018 RMK AO2 T00061027

More Conditions Fewer Conditions

10-Day Weather Forecast

Almanac

Astronomy

Dec. 21, 2014 Rise Set
Actual Time
Civil Twilight
Nautical Twilight
Astronomical Twilight
Moon
Length of Visible Light
Length of Day
Tomorrow will be .
, % of the Moon is Illuminated

Today's Extremes

State Highs State Lows

Community

WunderPhotos

Upload Photos

1,779,478 photos uploaded!

WunderBlogs® & News

Nearby

Air Quality

  Air Quality AQ Index Pollutant
Not available.

Snow Depth

Station Depth Elevation

Earthquake Activity

City Distance Mag. Time & Date
Minimum magnitude displayed is 2.5.

Coastal Water Temperatures

Place Temperature

Nearby Weather Stations